Time;durP1;ratioP1;P1;durP2;ratioP2;P2;SDS_P1;SDS_P2;PMS_P1;PMS_P2;Temp;Humidity;BMP_temperature;BMP_pressure;BME280_temperature;BME280_humidity;BME280_pressure;Samples;Min_cycle;Max_cycle;Signal;HPM_P1;HPM_P2
2021/12/25 00:00:52;;;;;;;21.70;16.60;;;7.20;99.90;;;;;;5084158;27;37258;-71
2021/12/25 00:03:19;;;;;;;20.73;15.63;;;7.20;99.90;;;;;;5081106;28;39606;-72
2021/12/25 00:05:48;;;;;;;18.77;13.40;;;7.20;99.90;;;;;;5086345;27;38988;-72
2021/12/25 00:08:14;;;;;;;21.00;14.77;;;7.20;99.90;;;;;;5081972;27;38614;-73
2021/12/25 00:10:40;;;;;;;20.47;15.43;;;7.20;99.90;;;;;;5102851;27;37929;-72
2021/12/25 00:13:06;;;;;;;21.20;15.73;;;7.20;99.90;;;;;;5083236;27;39681;-72
2021/12/25 00:15:32;;;;;;;23.23;16.80;;;7.20;99.90;;;;;;5084260;27;38903;-71
2021/12/25 00:17:58;;;;;;;20.20;16.40;;;7.20;99.90;;;;;;5089610;27;38601;-71
2021/12/25 00:20:24;;;;;;;20.83;15.27;;;7.20;99.90;;;;;;5100308;27;38807;-72
2021/12/25 00:22:50;;;;;;;20.73;15.50;;;7.20;99.90;;;;;;5081266;27;40687;-72
2021/12/25 00:25:19;;;;;;;24.80;16.47;;;7.20;99.90;;;;;;5093507;27;38394;-72
2021/12/25 00:28:02;;;;;;;24.53;16.50;;;7.20;99.90;;;;;;5081485;27;39269;-72
2021/12/25 00:33:03;;;;;;;20.83;16.33;;;7.30;99.90;;;;;;5071777;28;39188;-72
2021/12/25 00:35:29;;;;;;;19.95;15.50;;;7.20;99.90;;;;;;5085146;27;47267;-72
2021/12/25 00:37:55;;;;;;;25.43;17.23;;;7.20;99.90;;;;;;5084304;28;38146;-73
2021/12/25 00:40:22;;;;;;;19.97;15.27;;;7.20;99.90;;;;;;5088829;27;37522;-72
2021/12/25 00:42:48;;;;;;;22.53;15.97;;;7.20;99.90;;;;;;5085643;28;38404;-71
2021/12/25 00:45:15;;;;;;;22.97;16.83;;;7.20;99.90;;;;;;5090642;27;37037;-71
2021/12/25 00:47:41;;;;;;;25.03;18.50;;;7.30;99.90;;;;;;5081259;27;37981;-71
2021/12/25 00:50:08;;;;;;;23.93;16.40;;;7.20;99.90;;;;;;5088640;28;36672;-72
2021/12/25 00:52:34;;;;;;;25.10;18.77;;;7.30;99.90;;;;;;5081758;28;39966;-72
2021/12/25 00:55:01;;;;;;;29.83;20.10;;;7.30;99.90;;;;;;5081110;27;39098;-72
2021/12/25 00:57:27;;;;;;;30.80;21.27;;;7.30;99.90;;;;;;5083934;27;39212;-71
2021/12/25 00:59:53;;;;;;;26.33;20.60;;;7.30;99.90;;;;;;5080255;27;38358;-71
2021/12/25 01:02:19;;;;;;;26.67;19.90;;;7.30;99.90;;;;;;5074690;28;38600;-71
2021/12/25 01:04:45;;;;;;;27.00;19.90;;;7.20;99.90;;;;;;5084472;27;38282;-71
2021/12/25 01:07:12;;;;;;;29.10;20.33;;;7.20;99.90;;;;;;5083920;27;36783;-72
2021/12/25 01:09:40;;;;;;;24.87;20.63;;;7.30;99.90;;;;;;5076465;28;36376;-71
2021/12/25 01:12:06;;;;;;;30.67;19.57;;;7.20;99.90;;;;;;5078340;27;40653;-72
2021/12/25 01:14:43;;;;;;;28.03;19.93;;;7.10;99.90;;;;;;5086409;28;40031;-73
2021/12/25 01:25:26;;;;;;;28.57;20.43;;;6.90;99.90;;;;;;5089535;27;38673;-72
2021/12/25 01:28:41;;;;;;;30.30;20.80;;;6.80;99.90;;;;;;5094903;27;48312;-72
2021/12/25 01:31:08;;;;;;;26.97;19.93;;;6.80;99.90;;;;;;5077637;27;48689;-73
2021/12/25 01:37:20;;;;;;;35.80;24.20;;;6.80;99.90;;;;;;5084674;27;39232;-73
2021/12/25 01:39:53;;;;;;;39.03;24.20;;;6.70;99.90;;;;;;5068650;27;38279;-72
2021/12/25 01:50:06;;;;;;;45.60;26.17;;;6.60;99.90;;;;;;5093265;27;38303;-72
2021/12/25 01:52:33;;;;;;;61.23;31.97;;;6.40;99.90;;;;;;5115081;27;38654;-72
2021/12/25 01:55:02;;;;;;;57.70;32.27;;;6.30;99.90;;;;;;5083141;28;40559;-72
2021/12/25 01:57:30;;;;;;;59.17;33.20;;;6.30;99.90;;;;;;5083109;28;47114;-72
2021/12/25 01:59:57;;;;;;;63.20;31.70;;;6.20;99.90;;;;;;5092067;27;39679;-72
2021/12/25 02:02:24;;;;;;;65.33;34.40;;;6.20;99.90;;;;;;5100747;27;37169;-73
2021/12/25 02:04:51;;;;;;;55.30;31.53;;;6.10;99.90;;;;;;5087452;28;39079;-73
2021/12/25 02:07:18;;;;;;;55.23;30.27;;;6.10;99.90;;;;;;5091222;27;38770;-73
2021/12/25 02:09:44;;;;;;;56.70;32.23;;;6.00;99.90;;;;;;5082931;27;37798;-71
2021/12/25 02:12:11;;;;;;;60.13;31.33;;;6.00;99.90;;;;;;5078818;27;37527;-74
2021/12/25 02:14:40;;;;;;;57.90;32.27;;;6.00;99.90;;;;;;5090546;27;39645;-73
2021/12/25 02:17:17;;;;;;;49.07;29.87;;;5.90;99.90;;;;;;5087699;27;39333;-73
2021/12/25 02:19:56;;;;;;;49.33;30.00;;;5.90;99.90;;;;;;5085022;28;39689;-73
2021/12/25 02:22:28;;;;;;;57.57;32.90;;;5.80;99.90;;;;;;5085343;27;38234;-72
2021/12/25 02:24:54;;;;;;;57.42;32.10;;;5.80;99.90;;;;;;5081634;28;39658;-72
2021/12/25 02:27:20;;;;;;;55.27;32.13;;;5.70;99.90;;;;;;5075173;27;38254;-72
2021/12/25 02:29:46;;;;;;;55.37;32.43;;;5.70;99.90;;;;;;5080716;28;37767;-73
2021/12/25 02:32:12;;;;;;;54.30;31.43;;;5.70;99.90;;;;;;5075541;27;35547;-71
2021/12/25 02:34:38;;;;;;;48.13;29.77;;;5.70;99.90;;;;;;5085938;28;39833;-75
2021/12/25 02:37:05;;;;;;;53.40;31.03;;;5.70;99.90;;;;;;5092472;27;38554;-73
2021/12/25 02:39:31;;;;;;;51.00;30.90;;;5.70;99.90;;;;;;5076538;28;38254;-73
2021/12/25 02:41:57;;;;;;;52.20;30.13;;;5.70;99.90;;;;;;5080136;27;37373;-72
2021/12/25 02:44:23;;;;;;;53.03;31.00;;;5.60;99.90;;;;;;5080409;28;38868;-72
2021/12/25 02:46:54;;;;;;;50.63;30.00;;;5.60;99.90;;;;;;5070497;27;39603;-74
2021/12/25 02:49:20;;;;;;;39.60;28.00;;;5.60;99.90;;;;;;5086798;27;38787;-73
2021/12/25 02:51:47;;;;;;;45.87;28.47;;;5.50;99.90;;;;;;5084515;27;37376;-73
2021/12/25 02:54:13;;;;;;;42.47;27.30;;;5.50;99.90;;;;;;5083767;28;39471;-74
2021/12/25 02:56:40;;;;;;;44.27;26.10;;;5.50;99.90;;;;;;5088668;27;38950;-73
2021/12/25 02:59:06;;;;;;;45.83;26.70;;;5.40;99.90;;;;;;5085505;27;40602;-74
2021/12/25 03:01:32;;;;;;;32.23;21.77;;;5.40;99.90;;;;;;5088996;27;38723;-72
2021/12/25 03:03:58;;;;;;;37.70;22.80;;;5.40;99.90;;;;;;5084441;27;39236;-72
2021/12/25 03:06:25;;;;;;;35.10;22.67;;;5.40;99.90;;;;;;5080697;27;40171;-72
2021/12/25 03:08:52;;;;;;;32.73;21.60;;;5.40;99.90;;;;;;5080790;27;38702;-73
2021/12/25 03:11:18;;;;;;;29.83;20.60;;;5.30;99.90;;;;;;5095085;27;38110;-72
2021/12/25 03:13:57;;;;;;;31.70;20.10;;;5.30;99.90;;;;;;5088432;28;40299;-73
2021/12/25 03:16:25;;;;;;;27.87;18.67;;;5.20;99.90;;;;;;5092095;27;39205;-73
2021/12/25 03:18:54;;;;;;;28.70;19.80;;;5.30;99.90;;;;;;5089969;28;38236;-73
2021/12/25 03:21:20;;;;;;;30.53;20.43;;;5.20;99.90;;;;;;5084552;27;37379;-73
2021/12/25 03:23:48;;;;;;;30.03;20.73;;;5.20;99.90;;;;;;5078619;28;39582;-73
2021/12/25 03:26:15;;;;;;;29.73;19.20;;;5.20;99.90;;;;;;5079782;27;39174;-73
2021/12/25 03:28:44;;;;;;;25.17;17.50;;;5.10;99.90;;;;;;5079343;28;38212;-73
2021/12/25 03:31:16;;;;;;;23.40;16.80;;;5.00;99.90;;;;;;5085025;27;38362;-73
2021/12/25 03:33:50;;;;;;;21.73;15.90;;;5.00;99.90;;;;;;5071864;28;39791;-73
2021/12/25 03:36:16;;;;;;;24.00;16.13;;;5.00;99.90;;;;;;5083782;27;38200;-73
2021/12/25 03:38:44;;;;;;;23.67;15.23;;;5.00;99.90;;;;;;5080730;28;38536;-73
2021/12/25 03:41:13;;;;;;;25.10;16.30;;;4.90;99.90;;;;;;5087246;27;36949;-73
2021/12/25 03:43:40;;;;;;;23.83;16.03;;;5.00;99.90;;;;;;5081406;28;39706;-72
2021/12/25 03:46:09;;;;;;;20.90;15.37;;;4.90;99.90;;;;;;5087008;27;38137;-73
2021/12/25 03:48:57;;;;;;;19.27;13.83;;;4.90;99.90;;;;;;5079578;28;38847;-72
2021/12/25 03:59:39;;;;;;;20.10;15.10;;;4.70;99.90;;;;;;5086580;27;49009;-74
2021/12/25 04:02:14;;;;;;;23.90;16.20;;;4.70;99.90;;;;;;5078030;27;39393;-72
2021/12/25 04:04:44;;;;;;;24.90;16.73;;;4.50;99.90;;;;;;5076282;28;39706;-73
2021/12/25 04:08:01;;;;;;;25.90;17.13;;;4.50;99.90;;;;;;5081823;27;39279;-73
2021/12/25 04:10:01;;;;;;;26.93;17.37;;;4.50;99.90;;;;;;5077232;27;38713;-72
2021/12/25 04:12:27;;;;;;;24.10;17.13;;;4.40;99.90;;;;;;5080055;27;47815;-72
2021/12/25 04:14:53;;;;;;;28.30;18.13;;;4.40;99.90;;;;;;5077829;27;40388;-73
2021/12/25 04:17:19;;;;;;;24.00;16.40;;;4.40;99.90;;;;;;5098430;27;38851;-73
2021/12/25 04:19:46;;;;;;;25.83;18.00;;;4.40;99.90;;;;;;5078797;28;38769;-73
2021/12/25 04:22:19;;;;;;;29.37;18.57;;;4.30;99.90;;;;;;5078246;27;38313;-72
2021/12/25 04:24:47;;;;;;;28.97;19.40;;;4.30;99.90;;;;;;5079649;28;39009;-74
2021/12/25 04:27:13;;;;;;;30.00;19.67;;;4.30;99.90;;;;;;5076412;27;39056;-73
2021/12/25 04:29:55;;;;;;;32.97;20.67;;;4.30;99.90;;;;;;5080927;27;38163;-72
2021/12/25 05:02:30;;;;;;;47.20;28.87;;;4.00;99.90;;;;;;5072912;27;38283;-72
2021/12/25 05:05:01;;;;;;;47.20;28.40;;;4.00;99.90;;;;;;5078909;27;37643;-72
2021/12/25 05:07:27;;;;;;;46.33;28.40;;;3.90;99.90;;;;;;5079618;27;48441;-72
2021/12/25 05:09:53;;;;;;;53.70;29.80;;;3.90;99.90;;;;;;5080552;27;39389;-72
2021/12/25 05:12:20;;;;;;;45.77;28.10;;;3.90;99.90;;;;;;5079916;27;38548;-72
2021/12/25 05:14:46;;;;;;;45.27;26.93;;;3.90;99.90;;;;;;5077899;28;37409;-72
2021/12/25 05:17:13;;;;;;;43.60;28.33;;;3.80;99.90;;;;;;5070786;27;39021;-72
2021/12/25 05:19:39;;;;;;;42.83;26.97;;;3.90;99.90;;;;;;5076342;27;38477;-72
2021/12/25 05:22:06;;;;;;;52.20;28.53;;;3.90;99.90;;;;;;5077169;27;39264;-71
2021/12/25 05:24:32;;;;;;;44.97;27.90;;;3.80;99.90;;;;;;5088189;27;38225;-72
2021/12/25 05:26:58;;;;;;;46.13;28.20;;;3.80;99.90;;;;;;5092666;27;39698;-72
2021/12/25 05:29:26;;;;;;;46.63;27.73;;;3.80;99.90;;;;;;5083272;27;38133;-73
2021/12/25 05:31:53;;;;;;;46.50;25.70;;;3.80;99.90;;;;;;5086280;27;37129;-72
2021/12/25 05:34:19;;;;;;;42.70;25.67;;;3.80;99.90;;;;;;5081045;27;37388;-72
2021/12/25 05:36:45;;;;;;;50.83;27.53;;;3.80;99.90;;;;;;5081459;27;39087;-72
2021/12/25 05:39:13;;;;;;;46.23;26.53;;;3.80;99.90;;;;;;5079303;27;38479;-72
2021/12/25 05:41:40;;;;;;;47.90;26.83;;;3.80;99.90;;;;;;5078254;27;37985;-71
2021/12/25 05:44:06;;;;;;;45.70;27.53;;;3.80;99.90;;;;;;5076430;27;37597;-72
2021/12/25 05:46:32;;;;;;;43.03;25.77;;;3.80;99.90;;;;;;5074088;27;38766;-72
2021/12/25 05:48:58;;;;;;;45.27;26.00;;;3.80;99.90;;;;;;5077132;28;40241;-72
2021/12/25 05:51:24;;;;;;;42.33;25.50;;;3.80;99.90;;;;;;5073710;27;39094;-73
2021/12/25 05:53:50;;;;;;;50.60;27.30;;;3.70;99.90;;;;;;5071769;27;36395;-72
2021/12/25 05:56:16;;;;;;;44.17;26.03;;;3.70;99.90;;;;;;5080890;27;38634;-73
2021/12/25 05:58:42;;;;;;;48.47;27.07;;;3.70;99.90;;;;;;5098133;27;39222;-73
2021/12/25 06:01:09;;;;;;;45.17;26.53;;;3.70;99.90;;;;;;5082158;28;38339;-72
2021/12/25 06:03:35;;;;;;;45.20;26.23;;;3.70;99.90;;;;;;5082891;27;38843;-73
2021/12/25 06:06:01;;;;;;;49.03;27.93;;;3.70;99.90;;;;;;5079642;27;38684;-74
2021/12/25 06:08:28;;;;;;;50.97;27.33;;;3.70;99.90;;;;;;5085763;28;38596;-73
2021/12/25 06:10:55;;;;;;;43.60;27.03;;;3.70;99.90;;;;;;5094732;27;38322;-73
2021/12/25 06:13:22;;;;;;;45.70;26.97;;;3.70;99.90;;;;;;5076865;27;39453;-73
2021/12/25 06:15:54;;;;;;;43.23;26.00;;;3.60;99.90;;;;;;5072681;27;38912;-73
2021/12/25 06:18:20;;;;;;;42.90;25.48;;;3.60;99.90;;;;;;5080002;27;39500;-73
2021/12/25 06:20:46;;;;;;;45.80;26.80;;;3.60;99.90;;;;;;5077660;28;38274;-73
2021/12/25 06:23:13;;;;;;;50.37;26.70;;;3.60;99.90;;;;;;5075196;27;35889;-73
2021/12/25 06:25:39;;;;;;;46.33;26.60;;;3.60;99.90;;;;;;5077399;27;39502;-71
2021/12/25 06:28:05;;;;;;;48.30;25.20;;;3.60;99.90;;;;;;5078628;27;40078;-74
2021/12/25 06:30:32;;;;;;;47.07;26.97;;;3.50;99.90;;;;;;5077536;27;37865;-71
2021/12/25 06:32:58;;;;;;;52.60;27.40;;;3.50;99.90;;;;;;5080962;28;38352;-71
2021/12/25 06:35:24;;;;;;;44.70;24.30;;;3.50;99.90;;;;;;5077162;27;39420;-73
2021/12/25 06:37:51;;;;;;;48.67;26.33;;;3.40;99.90;;;;;;5078784;28;39977;-71
2021/12/25 06:40:18;;;;;;;52.93;27.53;;;3.40;99.90;;;;;;5067499;27;38527;-72
2021/12/25 06:42:45;;;;;;;46.33;26.23;;;3.40;99.90;;;;;;5077734;28;37402;-71
2021/12/25 06:45:12;;;;;;;43.77;24.67;;;3.30;99.90;;;;;;5078659;27;40410;-72
2021/12/25 06:47:39;;;;;;;47.73;25.80;;;3.30;99.90;;;;;;5083614;27;38358;-72
2021/12/25 06:50:07;;;;;;;48.53;25.80;;;3.30;99.90;;;;;;5081378;27;38220;-72
2021/12/25 06:52:34;;;;;;;41.27;24.63;;;3.30;99.90;;;;;;5079770;28;38124;-72
2021/12/25 06:55:00;;;;;;;42.10;22.87;;;3.20;99.90;;;;;;5085505;28;39733;-72
2021/12/25 06:57:28;;;;;;;40.97;23.83;;;3.30;99.90;;;;;;5080191;28;38853;-72
2021/12/25 06:59:54;;;;;;;35.53;21.50;;;3.30;99.90;;;;;;5088272;27;38575;-72
2021/12/25 07:02:21;;;;;;;32.33;21.00;;;3.10;99.90;;;;;;5075653;27;38166;-72
2021/12/25 07:04:47;;;;;;;33.63;20.73;;;3.10;99.90;;;;;;5079268;27;39367;-72
2021/12/25 07:07:13;;;;;;;33.30;20.77;;;3.10;99.90;;;;;;5102943;27;39194;-72
2021/12/25 07:09:39;;;;;;;31.47;19.83;;;3.10;99.90;;;;;;5087005;28;36625;-71
2021/12/25 07:12:06;;;;;;;30.80;19.33;;;3.10;99.90;;;;;;5083532;27;37890;-72
2021/12/25 07:14:32;;;;;;;35.03;20.50;;;3.10;99.90;;;;;;5080649;28;40517;-71
2021/12/25 07:16:58;;;;;;;27.50;18.20;;;3.10;99.90;;;;;;5079160;27;39318;-72
2021/12/25 07:19:24;;;;;;;35.57;19.20;;;3.10;99.90;;;;;;5083395;27;38734;-72
2021/12/25 07:21:50;;;;;;;24.80;17.73;;;3.10;99.90;;;;;;5083684;27;36624;-72
2021/12/25 07:24:16;;;;;;;27.67;17.67;;;3.10;99.90;;;;;;5083493;27;39228;-71
2021/12/25 07:26:43;;;;;;;29.37;16.57;;;3.00;99.90;;;;;;5082933;27;38525;-72
2021/12/25 07:29:09;;;;;;;27.03;16.00;;;3.00;99.90;;;;;;5087907;27;38864;-72
2021/12/25 07:31:35;;;;;;;23.13;14.77;;;2.90;99.90;;;;;;5086430;27;39333;-72
2021/12/25 07:34:02;;;;;;;30.47;16.10;;;2.90;99.90;;;;;;5089138;27;40150;-72
2021/12/25 07:36:29;;;;;;;21.80;13.67;;;2.90;99.90;;;;;;5081855;27;47084;-72
2021/12/25 07:38:56;;;;;;;20.37;12.57;;;2.80;99.90;;;;;;5085281;27;38837;-71
2021/12/25 07:41:22;;;;;;;17.67;11.57;;;2.80;99.90;;;;;;5075015;28;37145;-71
2021/12/25 07:43:48;;;;;;;19.17;12.23;;;2.80;99.90;;;;;;5082441;27;42136;-71
2021/12/25 07:46:15;;;;;;;19.27;12.30;;;2.70;99.90;;;;;;5079743;27;38371;-70
2021/12/25 07:48:42;;;;;;;15.20;11.30;;;2.70;99.90;;;;;;5079103;27;37891;-72
2021/12/25 07:51:08;;;;;;;15.57;10.23;;;2.70;99.90;;;;;;5086505;27;38265;-71
2021/12/25 07:53:34;;;;;;;13.53;9.87;;;2.70;99.90;;;;;;5080793;28;39358;-71
2021/12/25 07:56:00;;;;;;;11.00;7.80;;;2.60;99.90;;;;;;5086586;27;38630;-70
2021/12/25 07:58:26;;;;;;;14.50;9.23;;;2.50;99.90;;;;;;5082218;27;47742;-71
2021/12/25 08:00:53;;;;;;;12.10;8.23;;;2.50;99.90;;;;;;5078293;28;38404;-71
2021/12/25 08:03:20;;;;;;;11.67;8.10;;;2.40;99.90;;;;;;5084121;27;38761;-71
2021/12/25 08:05:48;;;;;;;13.63;8.33;;;2.40;99.90;;;;;;5079879;27;38685;-71
2021/12/25 08:08:14;;;;;;;12.70;8.67;;;2.30;99.90;;;;;;5089079;27;38922;-71
2021/12/25 08:10:42;;;;;;;11.70;7.60;;;2.30;99.90;;;;;;5077825;28;37998;-73
2021/12/25 08:13:09;;;;;;;8.97;7.03;;;2.30;99.90;;;;;;5068954;27;39706;-71
2021/12/25 08:15:35;;;;;;;10.33;7.40;;;2.30;99.90;;;;;;5078087;27;38310;-71
2021/12/25 08:18:02;;;;;;;9.67;6.50;;;2.30;99.90;;;;;;5076028;28;38616;-71
2021/12/25 08:20:30;;;;;;;11.03;6.60;;;2.30;99.90;;;;;;5074160;27;46665;-70
2021/12/25 08:22:56;;;;;;;10.80;6.47;;;2.20;99.90;;;;;;5076386;27;38452;-71
2021/12/25 08:25:23;;;;;;;8.40;6.20;;;2.20;99.90;;;;;;5073991;27;38312;-71
2021/12/25 08:27:49;;;;;;;8.20;5.70;;;2.20;99.90;;;;;;5071215;28;36389;-71
2021/12/25 08:30:20;;;;;;;9.07;5.17;;;2.10;99.90;;;;;;5078161;27;37958;-71
2021/12/25 08:32:47;;;;;;;5.47;4.33;;;2.00;99.90;;;;;;5077648;27;39255;-71
2021/12/25 08:35:16;;;;;;;6.93;5.37;;;2.00;99.90;;;;;;5092154;27;37363;-72
2021/12/25 08:37:45;;;;;;;5.50;4.80;;;2.00;99.90;;;;;;5091946;27;37578;-71
2021/12/25 08:40:12;;;;;;;7.07;5.23;;;2.00;99.90;;;;;;5090255;27;38220;-71
2021/12/25 08:42:45;;;;;;;6.73;4.73;;;2.00;99.90;;;;;;5089058;27;39003;-71
2021/12/25 08:45:38;;;;;;;9.00;5.67;;;2.00;99.90;;;;;;5092063;27;37597;-70
2021/12/25 08:47:59;;;;;;;9.47;5.07;;;2.00;99.90;;;;;;5073351;27;38457;-70
2021/12/25 08:50:26;;;;;;;7.63;4.80;;;1.90;99.90;;;;;;5077669;27;37850;-70
2021/12/25 08:52:52;;;;;;;7.80;4.97;;;1.80;99.90;;;;;;5081989;27;39337;-70
2021/12/25 08:55:18;;;;;;;6.50;4.93;;;1.80;99.90;;;;;;5085599;27;38493;-72
2021/12/25 08:57:44;;;;;;;9.30;4.47;;;1.80;99.90;;;;;;5107890;27;36453;-71
2021/12/25 09:00:11;;;;;;;6.90;4.27;;;1.80;99.90;;;;;;5083748;27;36905;-71
2021/12/25 09:02:37;;;;;;;8.60;4.90;;;1.70;99.90;;;;;;5083544;28;37761;-71
2021/12/25 09:05:04;;;;;;;7.93;4.67;;;1.70;99.90;;;;;;5097233;27;38883;-71
2021/12/25 09:07:30;;;;;;;6.20;4.57;;;1.70;99.90;;;;;;5088831;27;39551;-71
2021/12/25 09:09:56;;;;;;;7.37;4.63;;;1.70;99.90;;;;;;5088176;27;37112;-71
2021/12/25 09:12:24;;;;;;;6.40;4.17;;;1.60;99.90;;;;;;5094893;27;39772;-71
2021/12/25 09:14:50;;;;;;;6.27;4.63;;;1.50;99.90;;;;;;5084233;27;39408;-72
2021/12/25 09:17:16;;;;;;;6.27;4.93;;;1.50;99.90;;;;;;5079513;27;38292;-72
2021/12/25 09:19:43;;;;;;;13.40;8.97;;;1.40;99.90;;;;;;5078507;27;38300;-72
2021/12/25 09:22:11;;;;;;;19.90;10.90;;;1.50;99.90;;;;;;5074342;27;39549;-71
2021/12/25 09:24:37;;;;;;;10.37;6.23;;;1.40;99.90;;;;;;5077142;27;40409;-71
2021/12/25 09:27:05;;;;;;;18.00;10.93;;;1.50;99.90;;;;;;5075144;27;37969;-71
2021/12/25 09:29:31;;;;;;;14.70;10.57;;;1.50;99.90;;;;;;5078527;27;37565;-71
2021/12/25 09:31:58;;;;;;;16.20;12.00;;;1.60;99.90;;;;;;5093729;27;42303;-70
2021/12/25 09:34:24;;;;;;;24.93;19.93;;;1.60;99.90;;;;;;5084689;27;38577;-71
2021/12/25 09:36:51;;;;;;;6.37;4.60;;;1.70;99.90;;;;;;5083390;27;36568;-71
2021/12/25 09:39:17;;;;;;;10.30;7.20;;;1.70;99.90;;;;;;5085797;27;39532;-71
2021/12/25 09:41:43;;;;;;;8.67;5.77;;;1.70;99.90;;;;;;5079640;27;39704;-70
2021/12/25 09:44:09;;;;;;;8.77;4.87;;;1.70;99.90;;;;;;5086061;27;38541;-71
2021/12/25 09:46:36;;;;;;;11.80;5.40;;;1.70;99.90;;;;;;5083161;27;36387;-72
2021/12/25 09:49:03;;;;;;;5.30;4.23;;;1.70;99.90;;;;;;5084532;27;34631;-71
2021/12/25 09:51:29;;;;;;;5.43;4.43;;;1.70;99.90;;;;;;5078840;27;38851;-71
2021/12/25 09:53:59;;;;;;;7.00;4.33;;;1.60;99.90;;;;;;5102490;27;37342;-71
2021/12/25 09:56:29;;;;;;;6.70;4.40;;;1.70;99.90;;;;;;5077790;27;39174;-70
2021/12/25 09:58:55;;;;;;;6.87;5.00;;;1.50;99.90;;;;;;5084225;28;37551;-71
2021/12/25 10:01:38;;;;;;;7.73;5.13;;;1.50;99.90;;;;;;5084061;27;37300;-71
2021/12/25 10:04:07;;;;;;;6.83;4.50;;;1.60;99.90;;;;;;5081879;27;38491;-70
2021/12/25 10:06:36;;;;;;;9.43;4.53;;;1.60;99.90;;;;;;5078071;27;37346;-72
2021/12/25 10:09:19;;;;;;;9.43;4.83;;;1.60;99.90;;;;;;5088872;27;38174;-71
2021/12/25 10:12:08;;;;;;;5.65;3.88;;;1.60;99.90;;;;;;5084348;27;48833;-70
2021/12/25 10:14:40;;;;;;;6.30;4.50;;;1.50;99.90;;;;;;5090595;27;47225;-71
2021/12/25 10:17:19;;;;;;;6.47;4.95;;;1.60;99.90;;;;;;5081958;27;37560;-71
2021/12/25 10:20:07;;;;;;;8.63;4.57;;;1.60;99.90;;;;;;5095862;27;36072;-71
2021/12/25 10:22:54;;;;;;;7.83;4.80;;;1.60;99.90;;;;;;5084919;28;47363;-71
2021/12/25 10:25:20;;;;;;;9.30;4.67;;;1.60;99.90;;;;;;5075592;27;38494;-71
2021/12/25 10:27:53;;;;;;;6.63;4.30;;;1.60;99.90;;;;;;5082203;27;37126;-71
2021/12/25 10:30:19;;;;;;;7.40;4.80;;;1.60;99.90;;;;;;5083012;27;36159;-70
2021/12/25 10:32:47;;;;;;;5.60;4.40;;;1.70;99.90;;;;;;5083166;28;38262;-69
2021/12/25 10:35:20;;;;;;;11.63;5.07;;;1.70;99.90;;;;;;5072181;27;37223;-70
2021/12/25 10:37:48;;;;;;;6.77;5.37;;;1.80;99.90;;;;;;5078130;27;37647;-71
2021/12/25 10:40:17;;;;;;;9.77;5.33;;;1.80;99.90;;;;;;5078030;27;37202;-71
2021/12/25 10:42:45;;;;;;;7.30;4.97;;;1.80;99.90;;;;;;5089161;27;39578;-71
2021/12/25 10:45:15;;;;;;;8.77;5.10;;;1.70;99.90;;;;;;5109055;27;38316;-71
2021/12/25 10:47:41;;;;;;;8.63;4.37;;;1.80;99.90;;;;;;5089906;27;37852;-70
2021/12/25 10:50:13;;;;;;;7.90;4.53;;;1.70;99.90;;;;;;5083653;27;37578;-70
2021/12/25 10:52:44;;;;;;;8.87;4.70;;;1.60;99.90;;;;;;5095416;27;38358;-71
2021/12/25 10:55:19;;;;;;;8.55;4.80;;;1.60;99.90;;;;;;5077555;27;37421;-72
2021/12/25 10:57:49;;;;;;;6.43;4.70;;;1.60;99.90;;;;;;5095274;27;39584;-72
2021/12/25 11:00:25;;;;;;;6.73;5.13;;;1.60;99.90;;;;;;5091857;27;37277;-72
2021/12/25 11:02:55;;;;;;;5.60;4.27;;;1.50;99.90;;;;;;5092406;27;39544;-72
2021/12/25 11:05:32;;;;;;;7.47;4.67;;;1.60;99.90;;;;;;5085575;27;39073;-73
2021/12/25 11:08:14;;;;;;;7.87;4.80;;;1.70;99.90;;;;;;5081629;27;38747;-72
2021/12/25 11:10:53;;;;;;;5.60;4.45;;;1.70;99.90;;;;;;5102936;27;46837;-72
2021/12/25 11:13:21;;;;;;;7.63;4.83;;;1.90;99.90;;;;;;5089813;27;39588;-71
2021/12/25 11:15:49;;;;;;;6.87;3.87;;;1.80;99.90;;;;;;5090586;27;38775;-71
2021/12/25 11:18:17;;;;;;;10.27;6.30;;;1.70;99.90;;;;;;5094685;27;37614;-70
2021/12/25 11:20:44;;;;;;;9.80;4.97;;;1.70;99.90;;;;;;5088501;27;37259;-71
2021/12/25 11:23:12;;;;;;;12.50;6.90;;;1.70;99.90;;;;;;5091054;27;41134;-71
2021/12/25 11:25:40;;;;;;;11.70;7.13;;;1.70;99.90;;;;;;5088449;27;36735;-73
2021/12/25 11:28:10;;;;;;;7.80;4.73;;;1.80;99.90;;;;;;5085029;27;38484;-72
2021/12/25 11:30:43;;;;;;;6.87;4.30;;;2.00;99.90;;;;;;5089720;27;37579;-72
2021/12/25 11:33:10;;;;;;;4.57;3.53;;;2.10;99.90;;;;;;5104348;27;38778;-72
2021/12/25 11:35:37;;;;;;;7.20;4.03;;;2.10;99.90;;;;;;5082193;28;38342;-72
2021/12/25 11:38:06;;;;;;;3.93;3.20;;;2.20;99.90;;;;;;5085071;27;37401;-71
2021/12/25 11:40:38;;;;;;;4.40;3.57;;;2.30;99.90;;;;;;5087713;27;37644;-71
2021/12/25 11:43:04;;;;;;;4.00;2.40;;;2.40;99.90;;;;;;5081318;27;38794;-72
2021/12/25 11:45:36;;;;;;;4.70;2.83;;;2.40;99.90;;;;;;5091361;27;38493;-71
2021/12/25 11:48:31;;;;;;;4.83;2.70;;;2.30;99.90;;;;;;5089744;27;39826;-74
2021/12/25 11:50:57;;;;;;;3.63;2.20;;;2.30;99.90;;;;;;5061313;27;37523;-72
2021/12/25 11:53:53;;;;;;;3.63;2.37;;;2.30;99.90;;;;;;5086883;27;38872;-72
2021/12/25 11:56:39;;;;;;;2.33;1.83;;;2.20;99.90;;;;;;5081267;27;39855;-72
2021/12/25 11:59:13;;;;;;;3.17;2.03;;;2.10;99.90;;;;;;5088877;27;37262;-71
2021/12/25 12:01:42;;;;;;;3.57;2.30;;;2.10;99.90;;;;;;5092023;27;37070;-72
2021/12/25 12:04:11;;;;;;;3.47;2.23;;;2.10;99.90;;;;;;5086970;27;38815;-71
2021/12/25 12:06:46;;;;;;;4.10;2.83;;;2.10;99.90;;;;;;5087572;28;37819;-71
2021/12/25 12:09:15;;;;;;;4.60;2.10;;;2.10;99.90;;;;;;5089736;28;37539;-72
2021/12/25 12:11:48;;;;;;;2.53;2.00;;;2.10;99.90;;;;;;5092639;27;37104;-72
2021/12/25 12:14:27;;;;;;;4.00;2.00;;;2.00;99.90;;;;;;5084972;27;39696;-72
2021/12/25 12:16:57;;;;;;;3.67;1.90;;;2.00;99.90;;;;;;5081501;27;39100;-72
2021/12/25 12:19:39;;;;;;;4.60;1.70;;;2.00;99.90;;;;;;5080911;27;38939;-72
2021/12/25 12:25:13;;;;;;;3.57;2.20;;;2.00;99.90;;;;;;5096380;27;40028;-72
2021/12/25 12:27:43;;;;;;;2.28;1.70;;;2.00;99.90;;;;;;5088919;27;47959;-71
2021/12/25 12:30:12;;;;;;;5.17;2.00;;;2.10;99.90;;;;;;5088682;27;38758;-71
2021/12/25 12:32:45;;;;;;;3.80;1.80;;;2.00;99.90;;;;;;5093776;27;36535;-71
2021/12/25 12:35:32;;;;;;;3.13;2.00;;;2.00;99.90;;;;;;5086682;27;37826;-70
2021/12/25 12:38:26;;;;;;;4.67;1.97;;;2.10;99.90;;;;;;5084383;27;37189;-72
2021/12/25 12:41:27;;;;;;;2.30;1.97;;;2.20;99.90;;;;;;5084268;27;48960;-72
2021/12/25 12:43:56;;;;;;;2.57;1.57;;;2.20;99.90;;;;;;5084995;27;48639;-72
2021/12/25 12:46:44;;;;;;;3.10;1.90;;;2.20;99.90;;;;;;5076072;27;37888;-72
2021/12/25 12:49:10;;;;;;;3.70;1.77;;;2.20;99.90;;;;;;5071085;27;39303;-72
2021/12/25 12:51:36;;;;;;;3.53;1.90;;;2.20;99.90;;;;;;5079196;27;37902;-72
2021/12/25 12:54:03;;;;;;;2.23;1.40;;;2.30;99.90;;;;;;5070032;27;35888;-71
2021/12/25 12:56:30;;;;;;;2.93;1.50;;;2.30;99.90;;;;;;5078754;27;39642;-71
2021/12/25 12:58:57;;;;;;;1.73;1.13;;;2.30;99.90;;;;;;5090717;27;38142;-71
2021/12/25 13:01:25;;;;;;;3.30;1.63;;;2.40;99.90;;;;;;5084582;27;36995;-71
2021/12/25 13:03:59;;;;;;;3.30;2.43;;;2.40;99.90;;;;;;5081863;28;36561;-71
2021/12/25 13:06:28;;;;;;;2.57;1.50;;;2.40;99.90;;;;;;5083621;27;38675;-70
2021/12/25 13:08:54;;;;;;;1.67;1.43;;;2.40;99.90;;;;;;5087209;27;39165;-71
2021/12/25 13:11:27;;;;;;;2.00;1.37;;;2.40;99.90;;;;;;5085623;27;37844;-70
2021/12/25 13:13:58;;;;;;;2.50;1.43;;;2.50;99.90;;;;;;5090945;27;37459;-72
2021/12/25 13:16:32;;;;;;;2.57;1.30;;;2.40;99.90;;;;;;5084998;27;39891;-71
2021/12/25 13:19:03;;;;;;;1.90;1.30;;;2.40;99.90;;;;;;5082557;27;38049;-72
2021/12/25 13:21:30;;;;;;;2.27;1.30;;;2.50;99.90;;;;;;5082988;28;47370;-72
2021/12/25 13:24:09;;;;;;;1.90;1.10;;;2.50;99.90;;;;;;5079608;28;35998;-72
2021/12/25 13:26:39;;;;;;;2.00;1.30;;;2.50;99.90;;;;;;5086124;28;48519;-71
2021/12/25 13:29:07;;;;;;;2.80;1.63;;;2.50;99.90;;;;;;5097745;27;37493;-71
2021/12/25 13:31:36;;;;;;;1.83;1.10;;;2.50;99.90;;;;;;5106103;27;36932;-71
2021/12/25 13:34:11;;;;;;;2.40;1.40;;;2.50;99.90;;;;;;5096576;27;37317;-71
2021/12/25 13:36:38;;;;;;;1.43;1.33;;;2.50;99.90;;;;;;5081028;27;38476;-71
2021/12/25 13:39:12;;;;;;;1.60;1.47;;;2.50;99.90;;;;;;5081786;27;38821;-72
2021/12/25 13:41:41;;;;;;;4.10;3.20;;;2.50;99.90;;;;;;5093927;27;38056;-73
2021/12/25 13:44:09;;;;;;;11.77;6.13;;;2.60;99.90;;;;;;5089922;27;36772;-72
2021/12/25 13:46:40;;;;;;;2.50;1.83;;;2.60;99.90;;;;;;5089452;27;39734;-70
2021/12/25 13:49:06;;;;;;;4.10;2.90;;;2.60;99.90;;;;;;5085411;27;40160;-71
2021/12/25 13:51:32;;;;;;;8.67;4.80;;;2.60;99.90;;;;;;5094248;27;37929;-71
2021/12/25 13:53:58;;;;;;;4.37;1.90;;;2.60;99.90;;;;;;5084221;28;37087;-71
2021/12/25 13:56:24;;;;;;;2.00;1.60;;;2.60;99.90;;;;;;5072100;28;39615;-71
2021/12/25 13:58:50;;;;;;;1.40;1.23;;;2.60;99.90;;;;;;5085696;28;38223;-70